This is the latest recevied weather packets stored in our database for station/object DK7AK. If no packets are shown the sender has not sent any weather packets the latest 10 day(s).
| Time | Temp. | Humidity | Pressure | Rain* | Wind** | Luminosity | Snow |
|---|---|---|---|---|---|---|---|
| 1777711204 | 21.67° C | 33% | 1013.6 hPa | 0 mm | - | - | - |
| 1777710904 | 21.67° C | 33% | 1013.8 hPa | 0 mm | - | - | - |
| 1777705505 | 17.78° C | 53% | 1014.1 hPa | 0 mm | - | - | - |
| 1777666204 | 14.44° C | 51% | 1015.9 hPa | 0 mm | - | - | - |
| 1777665903 | 14.44° C | 50% | 1015.7 hPa | 0 mm | - | - | - |
| 1777659904 | 21.11° C | 30% | 1015.6 hPa | 0 mm | - | - | - |
| 1777659304 | 22.22° C | 30% | 1015.6 hPa | 0 mm | - | - | - |
| 1777652404 | 25.56° C | 23% | 1015.8 hPa | 0 mm | - | - | - |
| 1777651204 | 25.56° C | 23% | 1015.9 hPa | 0 mm | - | - | - |
| 1777649703 | 26.11° C | 21% | 1016.2 hPa | 0 mm | - | - | - |
| 1777644004 | 25° C | 23% | 1017.2 hPa | 0 mm | - | - | - |
| 1777643404 | 24.44° C | 22% | 1017.1 hPa | 0 mm | - | - | - |
| 1777641004 | 23.33° C | 23% | 1017.5 hPa | 0 mm | - | - | - |
| 1777640104 | 24.44° C | 23% | 1017.7 hPa | 0 mm | - | - | - |
| 1777638604 | 23.89° C | 24% | 1017.8 hPa | 0 mm | - | - | - |
| 1777637104 | 22.78° C | 25% | 1018.3 hPa | 0 mm | - | - | - |
| 1777635904 | 22.78° C | 24% | 1018.4 hPa | 0 mm | - | - | - |
| 1777635004 | 21.67° C | 28% | 1018.7 hPa | 0 mm | - | - | - |
| 1777633204 | 21.11° C | 27% | 1019.1 hPa | 0 mm | - | - | - |
| 1777632004 | 21.11° C | 27% | 1019.1 hPa | 0 mm | - | - | - |
| 1777629605 | 20° C | 30% | 1019.7 hPa | 0 mm | - | - | - |
| 1777625703 | 18.33° C | 30% | 1019.7 hPa | 0 mm | - | - | - |
| 1777622406 | 16.67° C | 34% | 1019.8 hPa | 0 mm | - | - | - |
| 1777579804 | 11.67° C | 40% | 1019 hPa | 0 mm | - | - | - |
| 1777577704 | 13.33° C | 33% | 1018.7 hPa | 0 mm | - | - | - |
* Rain latest hour (hover to see other rain measurements)
** Current wind speed in m/s (hover to see current wind gust speed)